createdAt,value
2019-05-30T00:00:41.764Z,0.9
2019-05-30T00:01:51.304Z,1.3
2019-05-30T00:03:00.808Z,0.6
2019-05-30T00:04:10.325Z,1
2019-05-30T00:05:19.854Z,0.8
2019-05-30T00:06:29.400Z,1
2019-05-30T00:07:38.910Z,0.6
2019-05-30T00:08:48.458Z,0.8
2019-05-30T00:09:58.371Z,1.2
2019-05-30T00:11:07.495Z,0.9
2019-05-30T00:12:17.049Z,0.9
2019-05-30T00:13:26.573Z,0.7
2019-05-30T00:14:36.085Z,0.9
2019-05-30T00:15:45.604Z,0.8
2019-05-30T00:16:55.192Z,0.8
2019-05-30T00:18:05.025Z,1
2019-05-30T00:19:14.254Z,0.8
2019-05-30T00:20:23.789Z,0.9
2019-05-30T00:21:33.325Z,0.9
2019-05-30T00:22:42.844Z,0.9
2019-05-30T00:23:52.351Z,0.7
2019-05-30T00:25:02.419Z,1.2
2019-05-30T00:26:11.416Z,0.9
2019-05-30T00:27:20.929Z,1
2019-05-30T00:28:30.437Z,0.9
2019-05-30T00:29:39.950Z,1.1
2019-05-30T00:30:49.473Z,0.6
2019-05-30T00:31:59.406Z,1.4
2019-05-30T00:33:08.515Z,1.2
2019-05-30T00:34:18.033Z,1.2
2019-05-30T00:35:27.564Z,1.1
2019-05-30T00:36:37.082Z,1
2019-05-30T00:37:46.625Z,1.1
2019-05-30T00:38:56.153Z,0.9
2019-05-30T00:40:06.131Z,0.9
2019-05-30T00:41:15.179Z,0.8
2019-05-30T00:42:24.712Z,1.2
2019-05-30T00:43:34.241Z,1.2
2019-05-30T00:44:43.740Z,1
2019-05-30T00:45:53.245Z,1.2
2019-05-30T00:47:02.768Z,1.2
2019-05-30T00:48:12.277Z,1
2019-05-30T00:49:21.785Z,1.6
2019-05-30T00:50:31.306Z,1
2019-05-30T00:51:40.838Z,1
2019-05-30T00:52:50.365Z,0.7
2019-05-30T00:54:00.692Z,1.2
2019-05-30T00:55:09.388Z,1.2
2019-05-30T00:56:18.903Z,1
2019-05-30T00:57:27.447Z,1.1
2019-05-30T00:58:36.966Z,1.4
2019-05-30T00:59:46.480Z,1.1
2019-05-30T01:00:56.735Z,1
2019-05-30T01:02:05.524Z,0.9
2019-05-30T01:03:15.048Z,0.8
2019-05-30T01:04:24.558Z,1.2
2019-05-30T01:05:34.058Z,1.3
2019-05-30T01:06:43.602Z,0.8
2019-05-30T01:07:53.147Z,0.7
2019-05-30T01:09:03.145Z,1.1
2019-05-30T01:10:12.172Z,0.8
2019-05-30T01:11:21.707Z,0.8
2019-05-30T01:12:31.234Z,1
2019-05-30T01:13:40.770Z,1.1
2019-05-30T01:14:50.297Z,1.2
2019-05-30T01:16:00.973Z,1
2019-05-30T01:17:10.313Z,1.3
2019-05-30T01:18:19.853Z,0.9
2019-05-30T01:19:29.369Z,1.1
2019-05-30T01:20:38.887Z,1
2019-05-30T01:21:48.429Z,1.6
2019-05-30T01:22:59.081Z,1.3
2019-05-30T01:24:08.431Z,0.8
2019-05-30T01:25:17.942Z,1.2
2019-05-30T01:26:27.464Z,1.3
2019-05-30T01:27:37.019Z,1.2
2019-05-30T01:28:46.542Z,1.2
2019-05-30T01:29:57.280Z,0.9
2019-05-30T01:31:09.951Z,1.3
2019-05-30T01:32:17.040Z,0.9
2019-05-30T01:33:26.567Z,1.1
2019-05-30T01:34:36.066Z,1.1
2019-05-30T01:35:45.599Z,0.8
2019-05-30T01:36:55.129Z,0.6
2019-05-30T01:38:05.843Z,1.1
2019-05-30T01:39:15.129Z,1.1
2019-05-30T01:40:24.658Z,1
2019-05-30T01:41:34.223Z,0.9
2019-05-30T01:42:43.738Z,1
2019-05-30T01:43:53.281Z,1.2
2019-05-30T01:45:04.124Z,1
2019-05-30T01:46:13.258Z,1
2019-05-30T01:47:22.765Z,1.2
2019-05-30T01:48:32.293Z,0.7
2019-05-30T01:49:41.818Z,1.1
2019-05-30T01:50:51.333Z,0.9
2019-05-30T01:52:00.843Z,1.1
2019-05-30T01:53:10.368Z,1.1
2019-05-30T01:54:19.894Z,1.4
2019-05-30T01:55:29.427Z,0.8
2019-05-30T01:56:38.928Z,0.9
2019-05-30T01:57:48.446Z,1.1
2019-05-30T01:58:58.622Z,1.1
2019-05-30T02:00:18.592Z,1.4
2019-05-30T02:01:24.570Z,1
2019-05-30T02:02:28.525Z,1.3
2019-05-30T02:03:38.055Z,0.9
2019-05-30T02:04:47.589Z,1.4
2019-05-30T02:05:57.091Z,1.2
2019-05-30T02:07:07.283Z,1.2
2019-05-30T02:08:16.106Z,1
2019-05-30T02:09:25.635Z,0.9
2019-05-30T02:10:35.146Z,1
2019-05-30T02:11:44.740Z,0.8
2019-05-30T02:12:54.254Z,1.1
2019-05-30T02:14:03.787Z,1
2019-05-30T02:15:13.296Z,1.1
2019-05-30T02:16:22.817Z,1
2019-05-30T02:17:32.348Z,1
2019-05-30T02:18:41.856Z,1.1
2019-05-30T02:19:51.383Z,0.9
2019-05-30T02:21:02.100Z,1.3
2019-05-30T02:22:11.494Z,0.9
2019-05-30T02:23:21.007Z,1
2019-05-30T02:24:30.538Z,0.9
2019-05-30T02:25:40.060Z,1
2019-05-30T02:26:49.576Z,0.6
2019-05-30T02:28:00.122Z,1.2
2019-05-30T02:29:10.424Z,0.9
2019-05-30T02:30:19.107Z,1
2019-05-30T02:31:38.790Z,0.6
2019-05-30T02:32:39.082Z,1.3
2019-05-30T02:33:48.614Z,0.8
2019-05-30T02:34:58.128Z,1.3
2019-05-30T02:36:08.528Z,1
2019-05-30T02:37:18.092Z,1
2019-05-30T02:38:27.611Z,1.2
2019-05-30T02:39:37.143Z,1.3
2019-05-30T02:40:46.683Z,1
2019-05-30T02:41:56.206Z,1.5
2019-05-30T02:43:07.471Z,0.8
2019-05-30T02:44:16.196Z,1.3
2019-05-30T02:45:25.736Z,1
2019-05-30T02:46:35.256Z,0.7
2019-05-30T02:47:44.769Z,1.2
2019-05-30T02:48:58.580Z,0.8
2019-05-30T02:50:05.972Z,0.7
2019-05-30T02:51:15.275Z,0.9
2019-05-30T02:52:24.784Z,1.1
2019-05-30T02:53:34.299Z,1.1
2019-05-30T02:54:43.830Z,0.8
2019-05-30T02:55:54.351Z,0.8
2019-05-30T02:57:05.424Z,1
2019-05-30T02:58:14.351Z,0.8
2019-05-30T02:59:23.900Z,1.2
2019-05-30T03:00:33.427Z,0.9
2019-05-30T03:01:59.581Z,1.1
2019-05-30T03:02:53.454Z,0.8
2019-05-30T03:04:04.007Z,0.8
2019-05-30T03:05:14.917Z,1.2
2019-05-30T03:06:23.992Z,0.9
2019-05-30T03:07:33.511Z,1
2019-05-30T03:08:43.123Z,0.7
2019-05-30T03:09:52.559Z,1
2019-05-30T03:11:02.838Z,1.1
2019-05-30T03:12:13.346Z,1
2019-05-30T03:13:23.045Z,0.8
2019-05-30T03:14:32.577Z,1
2019-05-30T03:15:42.137Z,1
2019-05-30T03:16:51.657Z,0.9
2019-05-30T03:18:02.243Z,1
2019-05-30T03:19:12.675Z,0.9
2019-05-30T03:20:23.511Z,0.8
2019-05-30T03:21:32.654Z,1.1
2019-05-30T03:22:42.180Z,0.8
2019-05-30T03:23:52.764Z,0.7
2019-05-30T03:25:02.927Z,0.9
2019-05-30T03:26:15.189Z,0.7
2019-05-30T03:27:23.178Z,1.1
2019-05-30T03:28:32.702Z,0.7
2019-05-30T03:29:44.152Z,1.1
2019-05-30T03:30:53.643Z,0.9
2019-05-30T03:32:38.458Z,0.9
2019-05-30T03:33:30.992Z,0.9
2019-05-30T03:34:28.105Z,1.1
2019-05-30T03:35:41.578Z,0.9
2019-05-30T03:36:45.041Z,0.9
2019-05-30T03:37:54.568Z,1.4
2019-05-30T03:39:05.547Z,1.1
2019-05-30T03:40:14.584Z,1.1
2019-05-30T03:41:24.115Z,1.3
2019-05-30T03:42:33.669Z,0.9
2019-05-30T03:43:43.169Z,1.2
2019-05-30T03:44:52.725Z,0.8
2019-05-30T03:46:03.901Z,0.9
2019-05-30T03:47:13.738Z,1
2019-05-30T03:48:23.213Z,0.9
2019-05-30T03:49:33.717Z,1.2
2019-05-30T03:50:43.244Z,0.9
2019-05-30T03:51:52.782Z,0.9
2019-05-30T03:53:02.288Z,0.8
2019-05-30T03:54:13.689Z,0.8
2019-05-30T03:55:22.262Z,1
2019-05-30T03:56:31.774Z,1.1
2019-05-30T03:57:41.311Z,1.1
2019-05-30T03:58:50.833Z,0.9
2019-05-30T04:00:00.396Z,0.8
2019-05-30T04:01:10.175Z,0.8
2019-05-30T04:02:19.414Z,1
2019-05-30T04:03:28.938Z,1.1
2019-05-30T04:04:38.466Z,1.1
2019-05-30T04:05:47.991Z,0.8
2019-05-30T04:06:57.497Z,0.9
2019-05-30T04:08:07.665Z,0.9
2019-05-30T04:09:22.274Z,1
2019-05-30T04:10:27.996Z,1
2019-05-30T04:11:37.501Z,1
2019-05-30T04:12:47.022Z,1
2019-05-30T04:13:56.540Z,1
2019-05-30T04:15:07.808Z,1
2019-05-30T04:16:16.543Z,1.1
2019-05-30T04:17:26.027Z,1.1
2019-05-30T04:18:35.530Z,0.7
2019-05-30T04:19:45.050Z,1
2019-05-30T04:20:54.586Z,1
2019-05-30T04:22:04.107Z,0.8
2019-05-30T04:23:14.769Z,1.2
2019-05-30T04:24:24.088Z,1.2
2019-05-30T04:25:33.647Z,0.7
2019-05-30T04:26:43.183Z,0.7
2019-05-30T04:27:52.703Z,1
2019-05-30T04:29:02.220Z,0.8
2019-05-30T04:30:11.920Z,1
2019-05-30T04:31:21.248Z,0.8
2019-05-30T04:32:30.760Z,1.3
2019-05-30T04:33:40.280Z,1.1
2019-05-30T04:34:50.611Z,0.7
2019-05-30T04:36:00.146Z,1.2
2019-05-30T04:37:10.623Z,1
2019-05-30T04:38:20.187Z,0.8
2019-05-30T04:39:29.709Z,0.9
2019-05-30T04:40:40.236Z,1
2019-05-30T04:41:49.771Z,0.8
2019-05-30T04:42:59.322Z,0.9
2019-05-30T04:44:09.775Z,1.4
2019-05-30T04:45:20.301Z,0.8
2019-05-30T04:46:29.874Z,1.2
2019-05-30T04:47:39.412Z,1.1
2019-05-30T04:48:48.948Z,1
2019-05-30T04:49:58.463Z,1
2019-05-30T04:51:08.016Z,1.3
2019-05-30T04:52:20.942Z,0.9
2019-05-30T04:53:27.995Z,1.1
2019-05-30T04:54:37.488Z,0.9
2019-05-30T04:55:46.996Z,1.1
2019-05-30T04:56:56.532Z,0.9
2019-05-30T04:58:06.081Z,0.9
2019-05-30T04:59:17.334Z,1.3
2019-05-30T05:00:26.034Z,1.6
2019-05-30T05:01:35.593Z,1.1
2019-05-30T05:02:45.106Z,1.2
2019-05-30T05:03:54.642Z,1.2
2019-05-30T05:05:04.166Z,1.3
2019-05-30T05:06:13.929Z,1.2
2019-05-30T05:07:23.204Z,1.1
2019-05-30T05:08:32.729Z,1.2
2019-05-30T05:09:42.255Z,1.1
2019-05-30T05:10:51.789Z,1
2019-05-30T05:12:01.312Z,0.7
2019-05-30T05:13:12.182Z,1.2
2019-05-30T05:14:22.684Z,1.1
2019-05-30T05:15:31.845Z,1.1
2019-05-30T05:16:41.361Z,1.1
2019-05-30T05:17:50.911Z,1.2
2019-05-30T05:19:00.404Z,0.8
2019-05-30T05:20:09.950Z,0.9
2019-05-30T05:21:19.459Z,1
2019-05-30T05:22:28.973Z,0.9
2019-05-30T05:23:38.499Z,1
2019-05-30T05:24:48.021Z,1.1
2019-05-30T05:26:01.118Z,1.2
2019-05-30T05:27:09.919Z,1.2
2019-05-30T05:28:19.858Z,1.3
2019-05-30T05:29:29.015Z,1
2019-05-30T05:30:38.552Z,1.2
2019-05-30T05:31:48.075Z,1.4
2019-05-30T05:32:57.605Z,1.4
2019-05-30T05:34:07.127Z,1
2019-05-30T05:35:16.799Z,1
2019-05-30T05:36:26.210Z,1.4
2019-05-30T05:37:35.727Z,1.3
2019-05-30T05:38:45.256Z,1.6
2019-05-30T05:39:54.770Z,1.3
2019-05-30T05:41:04.292Z,1
2019-05-30T05:42:13.841Z,1.3
2019-05-30T05:43:24.367Z,1.2
2019-05-30T05:44:33.816Z,1.2
2019-05-30T05:45:43.338Z,1.4
2019-05-30T05:46:52.884Z,1
2019-05-30T05:48:02.448Z,1.2
2019-05-30T05:49:11.957Z,1.1
2019-05-30T05:50:22.518Z,1.1
2019-05-30T05:51:31.963Z,1
2019-05-30T05:52:41.472Z,1.5
2019-05-30T05:53:51.001Z,1.2
2019-05-30T05:55:00.514Z,1.2
2019-05-30T05:56:10.044Z,1.6
2019-05-30T05:57:20.499Z,1.4
2019-05-30T05:58:30.077Z,1.2
2019-05-30T05:59:39.589Z,1.2
2019-05-30T06:00:49.105Z,1.5
2019-05-30T06:01:58.637Z,1.1
2019-05-30T06:03:08.161Z,1.1
2019-05-30T06:04:17.673Z,1.4
2019-05-30T06:05:28.429Z,0.8
2019-05-30T06:06:37.781Z,1.2
2019-05-30T06:07:47.305Z,1.3
2019-05-30T06:08:56.813Z,1.5
2019-05-30T06:10:06.343Z,1.1
2019-05-30T06:11:16.528Z,1.5
2019-05-30T06:12:25.757Z,1.7
2019-05-30T06:13:34.903Z,1.5
2019-05-30T06:14:44.447Z,1.5
2019-05-30T06:15:53.964Z,1
2019-05-30T06:17:03.497Z,1.6
2019-05-30T06:18:13.022Z,1.3
2019-05-30T06:19:23.183Z,1.1
2019-05-30T06:20:32.053Z,1.2
2019-05-30T06:21:53.354Z,1.4
2019-05-30T06:22:52.065Z,1.3
2019-05-30T06:24:01.587Z,1.6
2019-05-30T06:25:11.121Z,1.3
2019-05-30T06:26:22.362Z,1
2019-05-30T06:27:31.110Z,1.3
2019-05-30T06:28:40.620Z,1.2
2019-05-30T06:29:50.130Z,0.9
2019-05-30T06:30:59.634Z,3.5
2019-05-30T06:32:09.183Z,1.2
2019-05-30T06:33:18.709Z,1.4
2019-05-30T06:34:36.391Z,1.4
2019-05-30T06:35:38.733Z,1.7
2019-05-30T06:36:48.262Z,1.6
2019-05-30T06:37:57.814Z,1.2
2019-05-30T06:39:07.323Z,1.3
2019-05-30T06:40:16.866Z,1.2
2019-05-30T06:41:26.377Z,1.2
2019-05-30T06:42:35.989Z,1.4
2019-05-30T06:43:45.470Z,1.2
2019-05-30T06:44:54.978Z,1.3
2019-05-30T06:46:04.492Z,1.3
2019-05-30T06:47:14.032Z,1.2
2019-05-30T06:48:24.610Z,1.1
2019-05-30T06:49:34.006Z,1.2
2019-05-30T06:50:43.516Z,1.2
2019-05-30T06:51:53.056Z,1.1
2019-05-30T06:53:02.565Z,1.1
2019-05-30T06:54:12.073Z,1.2
2019-05-30T06:55:21.585Z,1.2
2019-05-30T06:56:31.543Z,1.1
2019-05-30T06:57:40.637Z,1.2
2019-05-30T06:58:50.135Z,1.4
2019-05-30T07:00:00.624Z,1.2
2019-05-30T07:01:10.203Z,1.3
2019-05-30T07:02:19.675Z,1.6
2019-05-30T07:03:30.418Z,1.3
2019-05-30T07:04:50.666Z,1.7
2019-05-30T07:05:50.449Z,1.7
2019-05-30T07:06:59.805Z,1.3
2019-05-30T07:08:09.160Z,1.3
2019-05-30T07:09:18.678Z,1.1
2019-05-30T07:10:28.817Z,1.2
2019-05-30T07:11:37.739Z,1.6
2019-05-30T07:12:47.250Z,1.6
2019-05-30T07:13:56.755Z,1.1
2019-05-30T07:15:06.271Z,1.3
2019-05-30T07:16:15.793Z,1.5
2019-05-30T07:17:25.331Z,1.2
2019-05-30T07:18:36.691Z,1.2
2019-05-30T07:19:45.297Z,1.1
2019-05-30T07:20:54.805Z,1.3
2019-05-30T07:22:04.332Z,1.2
2019-05-30T07:23:13.846Z,1.2
2019-05-30T07:24:23.691Z,1.4
2019-05-30T07:25:33.997Z,1.2
2019-05-30T07:26:43.351Z,1.1
2019-05-30T07:27:52.895Z,1.4
2019-05-30T07:29:02.394Z,1.5
2019-05-30T07:30:11.904Z,1.1
2019-05-30T07:31:21.422Z,1
2019-05-30T07:32:32.052Z,1
2019-05-30T07:33:41.400Z,1.2
2019-05-30T07:35:05.470Z,1.2
2019-05-30T07:36:01.399Z,1.3
2019-05-30T07:37:10.955Z,1.1
2019-05-30T07:38:20.488Z,0.9
2019-05-30T07:39:33.258Z,1.1
2019-05-30T07:40:40.520Z,1.2
2019-05-30T07:42:05.154Z,1.1
2019-05-30T07:43:00.557Z,1.2
2019-05-30T07:44:10.068Z,1.2
2019-05-30T07:45:19.581Z,1.2
2019-05-30T07:46:29.105Z,1.1
2019-05-30T07:47:38.740Z,0.9
2019-05-30T07:48:48.132Z,1.1
2019-05-30T07:49:57.644Z,1.2
2019-05-30T07:51:07.171Z,1.2
2019-05-30T07:52:16.712Z,1.1
2019-05-30T07:53:26.625Z,1.3
2019-05-30T07:54:35.713Z,1.6
2019-05-30T07:55:45.222Z,1.3
2019-05-30T07:56:54.735Z,1.2
2019-05-30T07:58:04.263Z,1.3
2019-05-30T07:59:13.781Z,1.3
2019-05-30T08:00:23.284Z,1.2
2019-05-30T08:01:32.805Z,0.9
2019-05-30T08:02:42.326Z,1.3
2019-05-30T08:03:51.835Z,1.3
2019-05-30T08:05:01.356Z,1
2019-05-30T08:06:10.858Z,1.1
2019-05-30T08:07:20.370Z,1
2019-05-30T08:08:29.898Z,1.2
2019-05-30T08:09:39.437Z,1.1
2019-05-30T08:10:48.942Z,1.1
2019-05-30T08:11:58.443Z,0.9
2019-05-30T08:13:07.992Z,1.2
2019-05-30T08:14:17.507Z,1.3
2019-05-30T08:15:27.326Z,1.5
2019-05-30T08:16:37.484Z,1.6
2019-05-30T08:17:47.010Z,1.2
2019-05-30T08:18:56.531Z,1
2019-05-30T08:20:06.051Z,1.2
2019-05-30T08:21:15.564Z,1.2
2019-05-30T08:22:25.118Z,1.3
2019-05-30T08:23:34.691Z,1
2019-05-30T08:24:44.170Z,1.2
2019-05-30T08:25:53.682Z,1.3
2019-05-30T08:27:03.201Z,1
2019-05-30T08:28:12.730Z,1.2
2019-05-30T08:29:22.235Z,1.1
2019-05-30T08:30:32.342Z,1.4
2019-05-30T08:31:41.268Z,1.1
2019-05-30T08:32:50.800Z,1
2019-05-30T08:34:00.320Z,1.2
2019-05-30T08:35:09.824Z,1.3
2019-05-30T08:36:19.369Z,0.9
2019-05-30T08:37:31.917Z,1.2
2019-05-30T08:38:40.344Z,1.2
2019-05-30T08:39:49.856Z,1
2019-05-30T08:40:59.370Z,1.2
2019-05-30T08:42:08.880Z,0.9
2019-05-30T08:43:18.404Z,1.1
2019-05-30T08:44:27.909Z,1
2019-05-30T08:45:37.969Z,0.9
2019-05-30T08:46:46.913Z,0.9
2019-05-30T08:47:56.439Z,1.1
2019-05-30T08:49:05.940Z,0.9
2019-05-30T08:50:15.463Z,0.8
2019-05-30T08:51:24.958Z,0.7
2019-05-30T08:52:34.527Z,0.7
2019-05-30T08:53:44.012Z,0.7
2019-05-30T08:54:53.519Z,0.8
2019-05-30T08:56:03.021Z,0.7
2019-05-30T08:57:12.526Z,0.7
2019-05-30T08:58:22.053Z,0.9
2019-05-30T08:59:32.340Z,0.7
2019-05-30T09:00:41.101Z,0.4
2019-05-30T09:01:53.130Z,0.5
2019-05-30T09:03:01.116Z,0.7
2019-05-30T09:04:10.645Z,0.7
2019-05-30T09:05:20.163Z,1
2019-05-30T09:06:29.684Z,0.7
2019-05-30T09:07:40.198Z,0.6
2019-05-30T09:08:49.699Z,0.9
2019-05-30T09:09:59.211Z,0.7
2019-05-30T09:11:08.723Z,0.8
2019-05-30T09:12:18.249Z,0.9
2019-05-30T09:13:27.772Z,0.5
2019-05-30T09:14:37.786Z,0.7
2019-05-30T09:15:47.783Z,1.1
2019-05-30T09:16:57.289Z,0.6
2019-05-30T09:18:06.790Z,0.7
2019-05-30T09:19:16.316Z,0.6
2019-05-30T09:20:25.839Z,0.8
2019-05-30T09:21:35.358Z,0.5
2019-05-30T09:22:45.495Z,0.8
2019-05-30T09:23:57.617Z,0.8
2019-05-30T09:25:04.846Z,0.8
2019-05-30T09:26:14.362Z,0.8
2019-05-30T09:27:23.883Z,0.8
2019-05-30T09:28:33.402Z,0.6
2019-05-30T09:29:44.230Z,0.6
2019-05-30T09:30:53.372Z,0.4
2019-05-30T09:32:02.883Z,0.7
2019-05-30T09:33:12.448Z,0.8
2019-05-30T09:34:21.955Z,1
2019-05-30T09:35:31.459Z,1.1
2019-05-30T09:36:41.055Z,1.4
2019-05-30T09:37:50.463Z,1.1
2019-05-30T09:39:00.728Z,0.8
2019-05-30T09:40:10.246Z,0.6
2019-05-30T09:41:19.755Z,0.6
2019-05-30T09:42:29.270Z,0.8
2019-05-30T09:43:39.820Z,0.8
2019-05-30T09:44:51.841Z,0.6
2019-05-30T09:45:59.771Z,0.8
2019-05-30T09:47:09.280Z,0.7
2019-05-30T09:48:18.782Z,0.8
2019-05-30T09:49:28.322Z,0.7
2019-05-30T09:50:37.823Z,0.9
2019-05-30T09:51:47.313Z,0.8
2019-05-30T09:52:56.835Z,0.7
2019-05-30T09:54:06.352Z,0.7
2019-05-30T09:55:15.862Z,0.6
2019-05-30T09:56:25.366Z,0.6
2019-05-30T09:57:34.877Z,0.9
2019-05-30T09:58:45.889Z,0.8
2019-05-30T09:59:54.885Z,1
2019-05-30T10:01:04.392Z,0.8
2019-05-30T10:02:13.904Z,1.1
2019-05-30T10:03:23.441Z,0.8
2019-05-30T10:04:32.963Z,0.4
2019-05-30T10:05:43.718Z,0.8
2019-05-30T10:06:52.987Z,0.8
2019-05-30T10:08:02.514Z,0.8
2019-05-30T10:09:12.039Z,0.8
2019-05-30T10:10:21.555Z,0.6
2019-05-30T10:11:31.089Z,0.8
2019-05-30T10:12:40.591Z,0.7
2019-05-30T10:13:51.170Z,0.9
2019-05-30T10:15:00.592Z,0.8
2019-05-30T10:16:10.109Z,0.9
2019-05-30T10:17:19.627Z,0.6
2019-05-30T10:18:29.137Z,0.9
2019-05-30T10:19:38.657Z,0.9
2019-05-30T10:20:49.392Z,0.8
2019-05-30T10:21:58.642Z,0.6
2019-05-30T10:23:08.139Z,0.6
2019-05-30T10:24:17.705Z,0.8
2019-05-30T10:25:27.265Z,0.6
2019-05-30T10:26:36.751Z,0.8
2019-05-30T10:27:47.961Z,0.7
2019-05-30T10:28:57.377Z,0.7
2019-05-30T10:30:06.269Z,0.8
2019-05-30T10:31:15.800Z,0.7
2019-05-30T10:32:25.347Z,0.9
2019-05-30T10:33:34.852Z,0.7
2019-05-30T10:34:46.143Z,0.8
2019-05-30T10:35:54.906Z,0.6
2019-05-30T10:37:04.420Z,0.6
2019-05-30T10:38:13.954Z,0.8
2019-05-30T10:39:23.471Z,0.7
2019-05-30T10:40:32.979Z,0.9
2019-05-30T10:41:42.489Z,0.7
2019-05-30T10:42:53.185Z,0.5
2019-05-30T10:44:02.466Z,0.9
2019-05-30T10:45:11.993Z,0.7
2019-05-30T10:46:21.508Z,0.8
2019-05-30T10:47:31.166Z,0.7
2019-05-30T10:48:40.699Z,0.7
2019-05-30T10:49:51.379Z,1
2019-05-30T10:51:00.708Z,0.6
2019-05-30T10:52:10.218Z,1.1
2019-05-30T10:53:19.741Z,0.9
2019-05-30T10:54:29.237Z,0.7
2019-05-30T10:55:38.786Z,0.6
2019-05-30T10:56:48.772Z,0.8
2019-05-30T10:57:59.592Z,0.8
2019-05-30T10:59:09.290Z,0.9
2019-05-30T11:00:18.871Z,1
2019-05-30T11:01:28.380Z,0.9
2019-05-30T11:02:37.902Z,0.8
2019-05-30T11:03:48.664Z,0.8
2019-05-30T11:04:57.958Z,0.9
2019-05-30T11:06:07.533Z,0.7
2019-05-30T11:07:16.985Z,0.7
2019-05-30T11:08:26.500Z,1.2
2019-05-30T11:09:36.057Z,1.1
2019-05-30T11:10:46.375Z,0.9
2019-05-30T11:11:55.142Z,0.7
2019-05-30T11:13:05.953Z,0.8
2019-05-30T11:14:15.116Z,0.7
2019-05-30T11:15:24.638Z,0.6
2019-05-30T11:16:34.220Z,0.8
2019-05-30T11:17:43.740Z,0.8
2019-05-30T11:18:54.501Z,0.7
2019-05-30T11:20:03.747Z,0.8
2019-05-30T11:21:13.308Z,0.6
2019-05-30T11:22:22.851Z,0.8
2019-05-30T11:23:32.359Z,0.8
2019-05-30T11:24:41.881Z,0.7
2019-05-30T11:25:52.543Z,1.1
2019-05-30T11:27:01.924Z,0.6
2019-05-30T11:28:11.443Z,1
2019-05-30T11:29:20.986Z,1
2019-05-30T11:30:30.527Z,0.9
2019-05-30T11:31:40.043Z,0.8
2019-05-30T11:32:50.720Z,1.1
2019-05-30T11:34:00.005Z,0.7
2019-05-30T11:35:09.509Z,0.8
2019-05-30T11:36:19.043Z,1
2019-05-30T11:37:28.571Z,0.9
2019-05-30T11:38:38.088Z,0.7
2019-05-30T11:39:47.601Z,0.8
2019-05-30T11:40:57.534Z,1
2019-05-30T11:42:06.647Z,0.8
2019-05-30T11:43:16.153Z,0.9
2019-05-30T11:44:25.662Z,0.8
2019-05-30T11:45:35.186Z,0.8
2019-05-30T11:46:44.685Z,0.8
2019-05-30T11:47:54.203Z,0.8
2019-05-30T11:49:03.717Z,0.6
2019-05-30T11:50:13.301Z,0.7
2019-05-30T11:51:22.736Z,0.8
2019-05-30T11:52:32.262Z,0.9
2019-05-30T11:53:41.780Z,0.7
2019-05-30T11:54:51.999Z,0.9
2019-05-30T11:56:00.803Z,0.8
2019-05-30T11:57:10.370Z,0.5
2019-05-30T11:58:20.074Z,0.8
2019-05-30T11:59:29.427Z,0.7
2019-05-30T12:00:38.922Z,0.8
2019-05-30T12:01:48.455Z,0.8
2019-05-30T12:02:58.655Z,0.9
2019-05-30T12:04:07.490Z,1.1
2019-05-30T12:05:17.006Z,0.9
2019-05-30T12:06:26.526Z,0.9
2019-05-30T12:07:36.996Z,0.8
2019-05-30T12:08:46.526Z,0.9
2019-05-30T12:09:56.862Z,0.9
2019-05-30T12:11:05.575Z,0.7
2019-05-30T12:12:15.082Z,0.7
2019-05-30T12:13:24.612Z,0.8
2019-05-30T12:14:34.141Z,1
2019-05-30T12:15:43.712Z,0.7
2019-05-30T12:16:53.262Z,1.1
2019-05-30T12:18:02.729Z,0.9
2019-05-30T12:19:12.274Z,0.8
2019-05-30T12:20:21.803Z,0.7
2019-05-30T12:21:31.341Z,0.7
2019-05-30T12:22:40.905Z,0.7
2019-05-30T12:23:51.892Z,1
2019-05-30T12:25:02.572Z,0.6
2019-05-30T12:26:11.482Z,0.9
2019-05-30T12:27:21.075Z,0.7
2019-05-30T12:28:30.598Z,0.7
2019-05-30T12:29:40.126Z,0.8
2019-05-30T12:30:56.379Z,0.7
2019-05-30T12:32:01.732Z,0.8
2019-05-30T12:33:10.615Z,0.5
2019-05-30T12:34:20.231Z,0.4
2019-05-30T12:35:29.771Z,0.6
2019-05-30T12:36:39.262Z,0.6
2019-05-30T12:37:54.596Z,0.7
2019-05-30T12:39:00.156Z,0.6
2019-05-30T12:40:09.766Z,0.6
2019-05-30T12:41:19.324Z,0.5
2019-05-30T12:42:28.835Z,0.6
2019-05-30T12:43:38.388Z,0.5
2019-05-30T12:44:47.923Z,0.5
2019-05-30T12:45:57.439Z,0.4
2019-05-30T12:47:07.066Z,0.6
2019-05-30T12:48:16.610Z,0.5
2019-05-30T12:49:26.191Z,0.6
2019-05-30T12:50:35.712Z,0.4
2019-05-30T12:51:45.247Z,0.4
2019-05-30T12:52:55.471Z,0.6
2019-05-30T12:54:04.292Z,0.6
2019-05-30T12:55:13.813Z,0.5
2019-05-30T12:56:23.331Z,0.7
2019-05-30T12:57:32.920Z,0.7
2019-05-30T12:58:42.454Z,0.7
2019-05-30T12:59:52.008Z,0.7
2019-05-30T13:01:02.866Z,0.7
2019-05-30T13:02:12.087Z,0.5
2019-05-30T13:03:21.654Z,0.9
2019-05-30T13:04:31.148Z,0.8
2019-05-30T13:05:40.666Z,0.6
2019-05-30T13:06:53.760Z,0.9
2019-05-30T13:08:13.937Z,0.5
2019-05-30T13:09:11.180Z,0.7
2019-05-30T13:10:20.704Z,0.9
2019-05-30T13:11:30.276Z,1.2
2019-05-30T13:12:39.858Z,0.9
2019-05-30T13:13:49.364Z,0.6
2019-05-30T13:14:59.564Z,0.8
2019-05-30T13:16:09.084Z,0.7
2019-05-30T13:17:18.166Z,0.5
2019-05-30T13:18:27.684Z,0.6
2019-05-30T13:19:37.208Z,0.9
2019-05-30T13:20:46.793Z,0.7
2019-05-30T13:21:57.092Z,0.6
2019-05-30T13:23:06.920Z,0.7
2019-05-30T13:24:15.563Z,0.4
2019-05-30T13:25:25.097Z,0.6
2019-05-30T13:26:34.766Z,0.7
2019-05-30T13:27:44.269Z,0.8
2019-05-30T13:28:53.791Z,0.7
2019-05-30T13:30:04.165Z,0.8
2019-05-30T13:31:13.009Z,0.7
2019-05-30T13:32:22.650Z,0.8
2019-05-30T13:33:32.177Z,0.6
2019-05-30T13:34:41.727Z,0.5
2019-05-30T13:35:51.318Z,0.6
2019-05-30T13:37:01.040Z,0.5
2019-05-30T13:38:23.791Z,0.6
2019-05-30T13:39:21.028Z,0.5
2019-05-30T13:40:30.575Z,0.5
2019-05-30T13:41:40.143Z,0.4
2019-05-30T13:42:49.640Z,0.5
2019-05-30T13:44:03.185Z,0.8
2019-05-30T13:45:09.746Z,0.6
2019-05-30T13:46:19.388Z,0.4
2019-05-30T13:47:28.906Z,0.5
2019-05-30T13:48:38.442Z,0.5
2019-05-30T13:49:47.974Z,0.5
2019-05-30T13:50:58.586Z,0.5
2019-05-30T13:52:09.122Z,0.6
2019-05-30T13:53:18.536Z,0.6
2019-05-30T13:54:28.177Z,0.8
2019-05-30T13:55:37.717Z,0.7
2019-05-30T13:56:47.233Z,0.6
2019-05-30T13:57:57.760Z,0.7
2019-05-30T13:59:08.031Z,0.5
2019-05-30T14:00:16.787Z,0.6
2019-05-30T14:01:26.341Z,0.4
2019-05-30T14:02:35.860Z,0.5
2019-05-30T14:03:45.373Z,0.3
2019-05-30T14:04:54.890Z,0.5
2019-05-30T14:06:06.175Z,0.5
2019-05-30T14:07:14.882Z,0.4
2019-05-30T14:08:24.375Z,0.4
2019-05-30T14:09:33.883Z,0.6
2019-05-30T14:10:43.410Z,0.5
2019-05-30T14:11:52.921Z,0.5
2019-05-30T14:13:02.567Z,0.5
2019-05-30T14:14:11.920Z,0.5
2019-05-30T14:15:21.415Z,0.5
2019-05-30T14:16:30.939Z,0.4
2019-05-30T14:17:40.474Z,0.4
2019-05-30T14:18:49.993Z,0.4
2019-05-30T14:20:00.696Z,0.5
2019-05-30T14:21:10.014Z,0.4
2019-05-30T14:22:19.565Z,0.6
2019-05-30T14:23:29.089Z,0.6
2019-05-30T14:24:38.602Z,0.7
2019-05-30T14:25:48.110Z,0.6
2019-05-30T14:26:57.646Z,0.7
2019-05-30T14:28:07.791Z,0.6
2019-05-30T14:29:16.665Z,0.4
2019-05-30T14:30:26.161Z,0.4
2019-05-30T14:31:35.682Z,0.4
2019-05-30T14:32:45.188Z,0.4
2019-05-30T14:33:54.698Z,0.4
2019-05-30T14:35:04.212Z,0.5
2019-05-30T14:36:14.699Z,0.5
2019-05-30T14:37:24.215Z,0.4
2019-05-30T14:38:33.729Z,0.5
2019-05-30T14:39:43.240Z,0.5
2019-05-30T14:40:52.779Z,0.4
2019-05-30T14:42:03.111Z,0.4
2019-05-30T14:43:11.845Z,0.3
2019-05-30T14:44:21.349Z,0.4
2019-05-30T14:45:30.857Z,0.4
2019-05-30T14:46:40.407Z,0.3
2019-05-30T14:47:49.922Z,0.3
2019-05-30T14:49:00.095Z,0.4
2019-05-30T14:50:10.905Z,0.4
2019-05-30T14:51:20.121Z,0.4
2019-05-30T14:52:29.656Z,0.3
2019-05-30T14:53:40.156Z,0.5
2019-05-30T14:54:49.662Z,0.4
2019-05-30T14:55:59.200Z,0.4
2019-05-30T14:57:08.883Z,0.3
2019-05-30T14:58:18.223Z,0.3
2019-05-30T14:59:27.727Z,0.3
2019-05-30T15:00:37.290Z,0.3
2019-05-30T15:01:47.805Z,0.4
2019-05-30T15:02:57.320Z,0.5
2019-05-30T15:04:07.129Z,0.6
2019-05-30T15:05:16.313Z,0.6
2019-05-30T15:06:25.855Z,0.8
2019-05-30T15:07:35.361Z,0.7
2019-05-30T15:08:44.870Z,0.5
2019-05-30T15:09:54.406Z,0.4
2019-05-30T15:11:05.344Z,0.3
2019-05-30T15:12:14.451Z,0.5
2019-05-30T15:13:23.971Z,0.5
2019-05-30T15:14:33.472Z,0.4
2019-05-30T15:15:43.039Z,0.5
2019-05-30T15:16:52.555Z,0.6
2019-05-30T15:18:02.066Z,0.5
2019-05-30T15:19:12.365Z,0.4
2019-05-30T15:20:21.081Z,0.5
2019-05-30T15:21:30.604Z,0.5
2019-05-30T15:22:40.133Z,0.6
2019-05-30T15:23:49.659Z,0.5
2019-05-30T15:24:59.209Z,0.6
2019-05-30T15:26:09.667Z,0.9
2019-05-30T15:27:20.753Z,0.7
2019-05-30T15:28:29.703Z,0.6
2019-05-30T15:29:39.257Z,1
2019-05-30T15:30:48.778Z,0.8
2019-05-30T15:31:58.318Z,0.4
2019-05-30T15:33:08.265Z,0.5
2019-05-30T15:34:17.345Z,0.5
2019-05-30T15:35:26.860Z,0.5
2019-05-30T15:36:36.403Z,0.5
2019-05-30T15:37:45.901Z,0.4
2019-05-30T15:38:55.426Z,0.7
2019-05-30T15:40:04.962Z,0.5
2019-05-30T15:41:15.224Z,0.4
2019-05-30T15:42:23.992Z,0.6
2019-05-30T15:43:33.506Z,0.6
2019-05-30T15:44:43.024Z,0.4
2019-05-30T15:45:52.546Z,0.5
2019-05-30T15:47:02.068Z,0.4
2019-05-30T15:48:12.261Z,0.6
2019-05-30T15:49:21.091Z,0.5
2019-05-30T15:50:30.601Z,0.5
2019-05-30T15:51:40.119Z,0.3
2019-05-30T15:52:51.027Z,0.3
2019-05-30T15:54:00.542Z,0.3
2019-05-30T15:55:11.336Z,0.4
2019-05-30T15:56:20.538Z,0.3
2019-05-30T15:57:30.107Z,0.4
2019-05-30T15:58:39.643Z,0.4
2019-05-30T15:59:49.165Z,0.3
2019-05-30T16:00:58.687Z,0.2
2019-05-30T16:02:08.228Z,0.3
2019-05-30T16:03:18.470Z,0.4
2019-05-30T16:04:27.239Z,0.3
2019-05-30T16:05:36.770Z,0.3
2019-05-30T16:06:46.296Z,0.3